KGVT/GVT METAR and TAF weather

Enter ICAO airport designator
Station Type Date Time Source
KGVT METAR 2021/02/25 16:35 UTC NOAA

KGVT 251635Z AUTO 04009KT 10SM OVC025 10/01 A3022 RMK AO2 TSNO T01020014


Station Type Date Time Source
KGVT Decoded METAR 2021/02/25 16:35 UTC NOAA

Greenville / Majors, TX, United States (KGVT) 33-04N 096-04W
Feb 25, 2021 - 11:35 AM EST / 2021.02.25 1635 UTC
Wind: from the NE (040 degrees) at 10 MPH (9 KT):0
Visibility: 10 mile(s):0
Sky conditions: overcast
Temperature: 50.4 F (10.2 C)
Dew Point: 34.5 F (1.4 C)
Relative Humidity: 54%
Pressure (altimeter): 30.22 in. Hg (1023 hPa)
ob: KGVT 251635Z AUTO 04009KT 10SM OVC025 10/01 A3022 RMK AO2 TSNO T01020014
cycle: 16

Station Type Date Time Source
KGVT TAF UTC NOAA

Error!

Example: see airport list